Time;durP1;ratioP1;P1;durP2;ratioP2;P2;SDS_P1;SDS_P2;PMS_P1;PMS_P2;Temp;Humidity;BMP_temperature;BMP_pressure;BME280_temperature;BME280_humidity;BME280_pressure;Samples;Min_cycle;Max_cycle;Signal;HPM_P1;HPM_P2
2023/06/28 00:00:19;;;;;;;1.70;0.63;;;19.90;65.90;;;;;;5032077;28;20054;-63
2023/06/28 00:02:45;;;;;;;0.95;0.75;;;19.90;65.90;;;;;;5031999;28;20029;-64
2023/06/28 00:05:12;;;;;;;1.60;0.40;;;19.80;66.00;;;;;;5031984;28;20435;-63
2023/06/28 00:07:38;;;;;;;0.85;0.65;;;19.90;66.20;;;;;;5015126;28;20445;-64
2023/06/28 00:10:04;;;;;;;1.27;0.55;;;19.90;66.20;;;;;;5032833;28;20112;-64
2023/06/28 00:12:32;;;;;;;1.27;0.32;;;19.80;66.10;;;;;;5032092;28;20084;-63
2023/06/28 00:14:58;;;;;;;5.30;0.93;;;19.80;66.20;;;;;;5032603;28;20020;-64
2023/06/28 00:17:28;;;;;;;1.52;0.77;;;19.80;66.30;;;;;;5031059;28;20021;-63
2023/06/28 00:19:54;;;;;;;1.83;0.60;;;19.80;66.50;;;;;;5032372;28;20025;-63
2023/06/28 00:22:22;;;;;;;0.80;0.50;;;19.80;66.60;;;;;;5032061;28;20040;-63
2023/06/28 00:24:47;;;;;;;0.73;0.52;;;19.80;66.50;;;;;;5032759;28;20061;-63
2023/06/28 00:27:13;;;;;;;2.38;0.85;;;19.80;66.70;;;;;;5032802;28;20767;-63
2023/06/28 00:29:39;;;;;;;0.98;0.52;;;19.70;66.70;;;;;;5014383;28;20116;-63
2023/06/28 00:32:05;;;;;;;1.23;0.80;;;19.70;66.90;;;;;;5032224;28;20462;-62
2023/06/28 00:34:30;;;;;;;1.80;0.60;;;19.60;66.80;;;;;;5032710;28;20080;-63
2023/06/28 00:36:56;;;;;;;0.40;0.40;;;19.60;66.80;;;;;;5032395;28;20037;-63
2023/06/28 00:39:21;;;;;;;0.95;0.70;;;19.60;66.90;;;;;;5032344;28;20029;-63
2023/06/28 00:41:47;;;;;;;1.90;0.80;;;19.60;67.10;;;;;;5032541;28;20021;-63
2023/06/28 00:44:13;;;;;;;1.25;0.88;;;19.50;67.30;;;;;;5032589;28;20091;-63
2023/06/28 00:46:39;;;;;;;0.98;0.60;;;19.50;67.40;;;;;;5031874;28;20060;-63
2023/06/28 00:49:04;;;;;;;1.95;0.70;;;19.60;67.40;;;;;;5031584;28;20032;-62
2023/06/28 00:51:32;;;;;;;1.10;0.70;;;19.60;67.50;;;;;;5028798;28;20029;-62
2023/06/28 00:54:01;;;;;;;0.57;0.40;;;19.60;67.60;;;;;;5031977;28;20029;-63
2023/06/28 00:56:27;;;;;;;0.75;0.60;;;19.60;67.60;;;;;;5023452;28;20460;-62
2023/06/28 00:58:53;;;;;;;0.95;0.70;;;19.60;67.50;;;;;;5014098;28;20029;-62
2023/06/28 01:01:19;;;;;;;0.63;0.63;;;19.60;67.30;;;;;;5029455;28;20505;-63
2023/06/28 01:03:44;;;;;;;0.95;0.70;;;19.60;67.30;;;;;;5031506;28;20077;-63
2023/06/28 01:06:12;;;;;;;1.95;0.60;;;19.60;67.40;;;;;;5031957;28;20098;-63
2023/06/28 01:08:40;;;;;;;1.63;0.70;;;19.60;67.60;;;;;;5012707;28;20033;-63
2023/06/28 01:11:07;;;;;;;2.30;0.50;;;19.50;67.70;;;;;;5032200;28;20025;-63
2023/06/28 01:13:34;;;;;;;0.50;0.35;;;19.60;67.70;;;;;;5031492;28;20067;-63
2023/06/28 01:16:00;;;;;;;1.25;0.80;;;19.60;68.30;;;;;;5031917;28;20382;-63
2023/06/28 01:18:26;;;;;;;0.52;0.50;;;19.60;67.60;;;;;;5030557;28;20128;-63
2023/06/28 01:20:55;;;;;;;1.27;0.75;;;19.50;67.70;;;;;;5032073;28;20060;-63
2023/06/28 01:23:27;;;;;;;0.60;0.60;;;19.60;68.00;;;;;;5013569;28;20113;-63
2023/06/28 01:25:55;;;;;;;1.48;0.55;;;19.50;67.80;;;;;;5030653;28;20028;-63
2023/06/28 01:28:22;;;;;;;1.00;0.60;;;19.50;68.00;;;;;;5013361;28;20045;-63
2023/06/28 01:30:52;;;;;;;2.35;0.60;;;19.50;67.90;;;;;;5031701;28;20064;-63
2023/06/28 01:33:18;;;;;;;0.50;0.50;;;19.50;68.00;;;;;;5030941;28;20033;-63
2023/06/28 01:35:45;;;;;;;0.90;0.68;;;19.60;68.10;;;;;;5031489;28;20419;-62
2023/06/28 01:38:12;;;;;;;3.03;0.52;;;19.60;68.20;;;;;;5030033;28;20493;-62
2023/06/28 01:40:39;;;;;;;0.55;0.55;;;19.50;68.10;;;;;;5031408;28;20029;-63
2023/06/28 01:43:06;;;;;;;1.23;0.50;;;19.50;68.10;;;;;;5030389;28;20033;-62
2023/06/28 01:45:35;;;;;;;0.60;0.60;;;19.50;68.10;;;;;;5030970;28;20520;-63
2023/06/28 01:48:02;;;;;;;0.65;0.55;;;19.60;68.10;;;;;;5010420;28;20036;-63
2023/06/28 01:50:28;;;;;;;0.63;0.40;;;19.50;68.40;;;;;;5030673;28;20029;-62
2023/06/28 01:52:57;;;;;;;0.40;0.40;;;19.50;68.60;;;;;;5029938;28;20045;-62
2023/06/28 01:55:22;;;;;;;1.35;0.70;;;19.40;69.00;;;;;;5012358;28;20033;-62
2023/06/28 01:57:48;;;;;;;0.50;0.50;;;19.40;69.20;;;;;;5019554;28;20366;-63
2023/06/28 02:00:15;;;;;;;0.73;0.40;;;19.40;69.40;;;;;;5030105;28;20439;-62
2023/06/28 02:02:41;;;;;;;0.98;0.45;;;19.40;69.50;;;;;;5029148;28;20125;-62
2023/06/28 02:05:07;;;;;;;3.15;1.17;;;19.40;69.70;;;;;;5011352;28;20120;-62
2023/06/28 02:07:32;;;;;;;3.47;0.52;;;19.40;69.80;;;;;;5029938;28;20033;-62
2023/06/28 02:09:58;;;;;;;0.57;0.50;;;19.30;70.20;;;;;;5030242;28;20431;-63
2023/06/28 02:12:24;;;;;;;0.88;0.75;;;19.30;70.50;;;;;;5030361;28;20048;-63
2023/06/28 02:14:52;;;;;;;1.48;0.80;;;19.30;70.50;;;;;;5030365;28;20033;-63
2023/06/28 02:17:21;;;;;;;1.95;0.90;;;19.30;70.80;;;;;;5030409;28;20488;-63
2023/06/28 02:19:50;;;;;;;2.00;0.75;;;19.30;71.10;;;;;;5022669;28;20056;-62
2023/06/28 02:22:16;;;;;;;0.70;0.52;;;19.30;71.10;;;;;;5030184;28;20104;-63
2023/06/28 02:24:43;;;;;;;3.17;0.85;;;19.30;71.00;;;;;;5030775;28;20030;-63
2023/06/28 02:27:09;;;;;;;1.05;0.60;;;19.30;71.10;;;;;;5030416;28;20369;-63
2023/06/28 02:29:35;;;;;;;0.57;0.50;;;19.30;71.40;;;;;;5030387;28;20117;-63
2023/06/28 02:32:01;;;;;;;1.85;0.80;;;19.30;71.60;;;;;;5029909;28;20026;-63
2023/06/28 02:34:26;;;;;;;1.17;0.50;;;19.30;71.70;;;;;;5030194;28;20058;-62
2023/06/28 02:36:52;;;;;;;0.80;0.50;;;19.20;71.70;;;;;;5012057;28;20033;-63
2023/06/28 02:39:18;;;;;;;1.67;0.75;;;19.20;72.00;;;;;;5029971;28;20101;-62
2023/06/28 02:41:44;;;;;;;0.52;0.40;;;19.20;72.60;;;;;;5012247;28;20117;-63
2023/06/28 02:44:09;;;;;;;0.88;0.57;;;19.30;72.60;;;;;;5030138;28;20105;-65
2023/06/28 02:46:35;;;;;;;4.00;0.68;;;19.30;72.70;;;;;;5012623;28;20112;-63
2023/06/28 02:49:01;;;;;;;1.30;0.80;;;19.20;72.60;;;;;;5028959;28;20033;-63
2023/06/28 02:51:26;;;;;;;0.43;0.43;;;19.10;72.70;;;;;;5029696;28;20033;-63
2023/06/28 02:53:52;;;;;;;2.25;0.80;;;19.10;72.70;;;;;;5030050;28;20029;-64
2023/06/28 02:56:18;;;;;;;0.80;0.60;;;19.10;72.80;;;;;;5011920;28;20036;-63
2023/06/28 02:58:43;;;;;;;2.05;0.98;;;19.00;72.90;;;;;;5029357;28;20533;-64
2023/06/28 03:01:09;;;;;;;0.50;0.50;;;18.90;72.90;;;;;;5029747;28;20176;-64
2023/06/28 03:03:36;;;;;;;0.50;0.50;;;18.90;73.70;;;;;;5029758;28;20029;-64
2023/06/28 03:06:03;;;;;;;0.55;0.50;;;18.90;73.30;;;;;;5029671;28;20135;-65
2023/06/28 03:08:29;;;;;;;0.77;0.57;;;18.80;73.30;;;;;;5023826;28;20025;-64
2023/06/28 03:10:55;;;;;;;2.00;0.70;;;18.70;73.50;;;;;;5029624;28;20384;-65
2023/06/28 03:13:21;;;;;;;1.13;0.60;;;18.70;73.50;;;;;;5029503;28;20075;-65
2023/06/28 03:15:47;;;;;;;0.63;0.52;;;18.70;73.70;;;;;;5029327;28;20079;-64
2023/06/28 03:18:13;;;;;;;0.68;0.68;;;18.70;73.70;;;;;;5028789;28;20058;-63
2023/06/28 03:20:38;;;;;;;3.10;0.70;;;18.60;73.80;;;;;;5029198;28;20033;-63
2023/06/28 03:23:04;;;;;;;0.80;0.65;;;18.60;74.00;;;;;;5029538;28;20029;-63
2023/06/28 03:25:30;;;;;;;0.98;0.50;;;18.60;74.10;;;;;;5029232;28;20435;-63
2023/06/28 03:27:56;;;;;;;0.68;0.60;;;18.60;74.20;;;;;;5029083;28;20514;-63
2023/06/28 03:30:22;;;;;;;1.63;0.70;;;18.60;74.50;;;;;;5009874;28;20049;-65
2023/06/28 03:32:48;;;;;;;0.50;0.45;;;18.60;74.70;;;;;;5027857;28;20097;-65
2023/06/28 03:35:14;;;;;;;0.70;0.40;;;18.60;74.70;;;;;;5013137;28;20065;-65
2023/06/28 03:37:47;;;;;;;0.73;0.70;;;18.60;74.80;;;;;;5028898;28;20420;-65
2023/06/28 03:40:15;;;;;;;2.92;0.50;;;18.60;74.90;;;;;;5027811;28;20033;-65
2023/06/28 03:42:40;;;;;;;1.13;0.50;;;18.70;75.10;;;;;;5028442;28;20392;-65
2023/06/28 03:45:07;;;;;;;1.23;0.57;;;18.70;75.10;;;;;;5010979;28;20052;-65
2023/06/28 03:47:32;;;;;;;6.72;0.52;;;18.70;75.00;;;;;;5008101;28;20358;-65
2023/06/28 03:49:58;;;;;;;1.15;0.85;;;18.70;75.00;;;;;;5027553;28;20033;-64
2023/06/28 03:52:24;;;;;;;0.55;0.40;;;18.70;75.20;;;;;;5028245;28;20037;-65
2023/06/28 03:54:49;;;;;;;1.25;0.52;;;18.70;75.00;;;;;;5021668;28;20068;-65
2023/06/28 03:57:15;;;;;;;2.53;0.60;;;18.70;75.00;;;;;;5027350;28;20053;-65
2023/06/28 03:59:41;;;;;;;0.47;0.47;;;18.70;75.20;;;;;;5009594;28;20042;-65
2023/06/28 04:02:07;;;;;;;0.82;0.50;;;18.70;75.40;;;;;;5025264;28;20058;-64
2023/06/28 04:04:33;;;;;;;0.50;0.50;;;18.70;75.40;;;;;;5027963;28;20036;-65
2023/06/28 04:07:01;;;;;;;0.65;0.60;;;18.70;75.40;;;;;;5011540;28;20040;-63
2023/06/28 04:09:27;;;;;;;0.57;0.45;;;18.70;75.40;;;;;;5027800;28;20434;-63
2023/06/28 04:11:53;;;;;;;1.52;0.60;;;18.70;75.60;;;;;;5028895;28;20049;-64
2023/06/28 04:14:18;;;;;;;0.60;0.60;;;18.70;75.40;;;;;;5028104;28;20061;-66
2023/06/28 04:16:44;;;;;;;0.73;0.60;;;18.70;75.40;;;;;;5028849;28;20079;-66
2023/06/28 04:19:10;;;;;;;0.57;0.50;;;18.80;75.40;;;;;;4996852;28;20045;-66
2023/06/28 04:21:36;;;;;;;0.93;0.60;;;18.80;75.40;;;;;;5028991;28;20772;-66
2023/06/28 04:24:02;;;;;;;0.65;0.52;;;18.80;75.40;;;;;;5028152;28;20033;-66
2023/06/28 04:26:28;;;;;;;0.50;0.50;;;18.80;75.40;;;;;;5028960;28;20053;-66
2023/06/28 04:28:53;;;;;;;0.40;0.40;;;18.80;75.50;;;;;;5027825;28;20072;-66
2023/06/28 04:31:19;;;;;;;1.13;0.57;;;18.80;75.50;;;;;;5009778;28;20030;-66
2023/06/28 04:33:46;;;;;;;0.82;0.55;;;18.80;75.50;;;;;;5028214;28;20457;-65
2023/06/28 04:36:12;;;;;;;2.35;0.60;;;18.80;75.50;;;;;;5029238;28;20538;-66
2023/06/28 04:38:39;;;;;;;0.60;0.52;;;18.80;75.50;;;;;;5028628;28;20025;-66
2023/06/28 04:41:05;;;;;;;1.85;0.52;;;18.80;75.40;;;;;;5005115;28;20099;-63
2023/06/28 04:43:41;;;;;;;1.55;0.70;;;18.70;75.20;;;;;;5031198;28;20021;-64
2023/06/28 04:46:11;;;;;;;2.95;0.50;;;18.70;75.10;;;;;;5032108;28;20492;-64
2023/06/28 04:48:41;;;;;;;1.15;0.85;;;18.70;75.00;;;;;;5024916;28;20037;-64
2023/06/28 04:51:07;;;;;;;1.73;0.98;;;18.70;74.90;;;;;;5030998;28;20041;-66
2023/06/28 04:53:32;;;;;;;0.80;0.52;;;18.60;75.00;;;;;;5032288;28;20025;-66
2023/06/28 04:56:00;;;;;;;0.65;0.50;;;18.60;75.20;;;;;;5014509;28;20380;-66
2023/06/28 04:58:26;;;;;;;1.90;1.05;;;18.50;75.10;;;;;;5031546;28;20495;-64
2023/06/28 05:00:52;;;;;;;1.35;0.82;;;18.50;75.10;;;;;;5029565;28;20133;-65
2023/06/28 05:03:17;;;;;;;1.92;0.60;;;18.50;74.90;;;;;;5031724;28;20047;-65
2023/06/28 05:05:43;;;;;;;1.10;0.63;;;18.60;75.10;;;;;;5031741;28;20091;-65
2023/06/28 05:08:09;;;;;;;0.40;0.40;;;18.60;75.10;;;;;;5031686;28;20074;-65
2023/06/28 05:10:36;;;;;;;0.55;0.55;;;18.60;75.20;;;;;;5031771;28;20060;-65
2023/06/28 05:13:02;;;;;;;4.13;0.50;;;18.70;75.30;;;;;;5032023;28;20030;-65
2023/06/28 05:15:32;;;;;;;0.85;0.50;;;18.70;75.50;;;;;;5013686;28;20412;-65
2023/06/28 05:17:58;;;;;;;0.40;0.40;;;18.70;75.60;;;;;;5031284;28;20469;-66
2023/06/28 05:20:24;;;;;;;0.95;0.60;;;18.70;75.70;;;;;;5030749;28;20030;-66
2023/06/28 05:23:07;;;;;;;1.27;0.95;;;18.80;75.80;;;;;;5015638;28;20033;-65
2023/06/28 05:25:32;;;;;;;2.47;0.70;;;18.80;75.90;;;;;;5030962;28;20052;-65
2023/06/28 05:27:58;;;;;;;1.70;1.08;;;18.80;75.90;;;;;;5030256;28;20033;-66
2023/06/28 05:30:23;;;;;;;1.25;0.82;;;18.80;75.90;;;;;;5030757;28;20040;-65
2023/06/28 05:32:49;;;;;;;2.80;0.90;;;18.80;75.90;;;;;;5030165;28;20498;-65
2023/06/28 05:35:15;;;;;;;0.50;0.47;;;18.70;75.90;;;;;;5031063;28;20116;-65
2023/06/28 05:37:41;;;;;;;1.90;0.70;;;18.70;75.90;;;;;;5030339;28;20064;-65
2023/06/28 05:40:08;;;;;;;0.95;0.68;;;18.70;75.80;;;;;;5033275;28;20522;-66
2023/06/28 05:42:34;;;;;;;1.02;0.70;;;18.70;75.60;;;;;;4996895;28;20119;-66
2023/06/28 05:44:59;;;;;;;0.73;0.70;;;18.70;75.70;;;;;;5030370;28;20037;-65
2023/06/28 05:47:25;;;;;;;4.43;0.80;;;18.60;75.90;;;;;;5029958;28;20075;-66
2023/06/28 05:49:51;;;;;;;1.23;0.65;;;18.60;76.10;;;;;;5030096;28;20037;-65
2023/06/28 05:52:16;;;;;;;0.75;0.60;;;18.50;76.10;;;;;;5030821;28;20033;-66
2023/06/28 05:54:42;;;;;;;0.73;0.50;;;18.50;76.10;;;;;;5030146;28;20389;-65
2023/06/28 05:57:08;;;;;;;1.23;0.75;;;18.50;76.30;;;;;;5031108;28;20480;-66
2023/06/28 05:59:34;;;;;;;1.38;0.80;;;18.50;76.30;;;;;;5013022;28;20034;-65
2023/06/28 06:01:59;;;;;;;0.80;0.75;;;18.40;76.30;;;;;;5030557;28;20112;-65
2023/06/28 06:04:25;;;;;;;1.85;0.82;;;18.50;76.30;;;;;;5030624;28;20033;-65
2023/06/28 06:06:51;;;;;;;3.83;0.75;;;18.50;76.40;;;;;;5031006;28;20108;-66
2023/06/28 06:09:16;;;;;;;0.77;0.65;;;18.40;76.70;;;;;;5030103;28;20534;-66
2023/06/28 06:11:42;;;;;;;2.72;0.98;;;18.50;76.30;;;;;;5031023;28;20113;-66
2023/06/28 06:14:08;;;;;;;0.77;0.70;;;18.50;76.50;;;;;;5030058;28;20029;-66
2023/06/28 06:16:34;;;;;;;0.85;0.60;;;18.50;76.40;;;;;;5013154;28;20040;-65
2023/06/28 06:19:00;;;;;;;2.88;1.13;;;18.50;76.30;;;;;;5030039;28;20033;-65
2023/06/28 06:21:25;;;;;;;5.18;1.00;;;18.50;76.50;;;;;;5030688;28;20117;-65
2023/06/28 06:23:54;;;;;;;3.55;1.30;;;18.40;76.80;;;;;;5030328;28;20073;-65
2023/06/28 06:26:19;;;;;;;1.88;1.15;;;18.40;76.70;;;;;;4996770;28;20045;-66
2023/06/28 06:28:45;;;;;;;1.50;1.20;;;18.40;76.70;;;;;;5012098;28;20456;-63
2023/06/28 06:31:13;;;;;;;1.05;0.70;;;18.40;76.70;;;;;;5007360;28;20034;-63
2023/06/28 06:33:39;;;;;;;2.75;1.25;;;18.50;76.80;;;;;;5008723;28;20057;-63
2023/06/28 06:36:05;;;;;;;3.22;1.00;;;18.50;76.80;;;;;;5030479;28;20445;-63
2023/06/28 06:38:31;;;;;;;0.98;0.70;;;18.50;76.90;;;;;;5029804;28;20049;-63
2023/06/28 06:40:56;;;;;;;4.25;0.95;;;18.60;77.00;;;;;;5029811;28;20033;-63
2023/06/28 06:43:22;;;;;;;2.28;1.02;;;18.60;77.00;;;;;;5030153;28;20396;-63
2023/06/28 06:45:48;;;;;;;1.13;0.95;;;18.60;76.90;;;;;;5007622;28;20485;-63
2023/06/28 06:48:13;;;;;;;1.98;1.50;;;18.60;77.10;;;;;;5026754;28;20112;-63
2023/06/28 06:50:39;;;;;;;1.55;0.95;;;18.60;77.10;;;;;;5030253;28;20033;-63
2023/06/28 06:53:05;;;;;;;1.60;1.00;;;18.60;77.10;;;;;;5029519;28;20079;-66
2023/06/28 06:55:32;;;;;;;2.08;1.20;;;18.50;77.00;;;;;;5030208;28;20030;-65
2023/06/28 06:57:58;;;;;;;3.72;1.42;;;18.50;77.00;;;;;;5029722;28;20025;-66
2023/06/28 07:00:24;;;;;;;2.47;0.80;;;18.50;77.10;;;;;;5030184;28;20037;-64
2023/06/28 07:02:49;;;;;;;2.28;1.48;;;18.50;77.40;;;;;;5029024;28;20044;-63
2023/06/28 07:05:15;;;;;;;1.90;1.23;;;18.50;77.40;;;;;;5029523;28;20037;-63
2023/06/28 07:07:42;;;;;;;1.92;1.08;;;18.40;77.40;;;;;;5028625;28;20018;-63
2023/06/28 07:10:08;;;;;;;0.80;0.70;;;18.40;77.60;;;;;;5012013;28;20477;-63
2023/06/28 07:12:34;;;;;;;5.10;1.60;;;18.30;78.40;;;;;;5010283;28;20033;-62
2023/06/28 07:15:00;;;;;;;1.95;1.13;;;18.40;78.00;;;;;;5006505;28;20080;-62
2023/06/28 07:17:26;;;;;;;1.80;1.58;;;18.40;78.00;;;;;;5028637;28;20037;-62
2023/06/28 07:19:51;;;;;;;3.30;1.20;;;18.40;78.10;;;;;;5028895;28;20377;-62
2023/06/28 07:22:17;;;;;;;1.00;0.90;;;18.40;78.20;;;;;;5028265;28;20030;-62
2023/06/28 07:24:43;;;;;;;2.35;0.82;;;18.30;78.30;;;;;;5028478;28;20512;-62
2023/06/28 07:27:08;;;;;;;4.28;1.45;;;18.40;78.30;;;;;;5028310;28;20086;-62
2023/06/28 07:29:35;;;;;;;3.28;1.63;;;18.50;78.20;;;;;;5028710;28;20029;-62
2023/06/28 07:32:01;;;;;;;1.23;0.90;;;18.50;78.30;;;;;;5028239;28;20030;-62
2023/06/28 07:34:27;;;;;;;2.45;1.20;;;18.60;78.30;;;;;;5029013;28;20060;-62
2023/06/28 07:36:53;;;;;;;2.13;1.30;;;18.60;78.20;;;;;;5010346;28;20493;-62
2023/06/28 07:39:19;;;;;;;3.55;1.85;;;18.70;78.30;;;;;;5010168;28;20037;-62
2023/06/28 07:41:44;;;;;;;0.85;0.70;;;18.70;78.20;;;;;;5028094;28;20405;-62
2023/06/28 07:44:10;;;;;;;2.17;1.23;;;18.80;78.10;;;;;;5029497;28;20033;-62
2023/06/28 07:46:36;;;;;;;1.98;1.00;;;18.80;78.00;;;;;;5029256;28;20044;-63
2023/06/28 07:49:02;;;;;;;2.63;1.73;;;18.80;78.00;;;;;;5027686;28;20065;-62
2023/06/28 07:51:27;;;;;;;3.67;1.90;;;18.80;77.80;;;;;;5028910;28;20092;-62
2023/06/28 07:53:53;;;;;;;2.20;1.10;;;18.70;78.00;;;;;;5011335;28;20037;-66
2023/06/28 07:56:19;;;;;;;3.90;1.67;;;18.70;78.20;;;;;;5029169;28;20101;-65
2023/06/28 07:58:46;;;;;;;2.35;1.45;;;18.70;78.40;;;;;;5028949;28;20061;-66
2023/06/28 08:01:11;;;;;;;1.30;1.20;;;18.70;78.50;;;;;;5027289;28;20107;-66
2023/06/28 08:03:37;;;;;;;1.58;1.30;;;18.70;78.40;;;;;;5011376;28;20026;-66
2023/06/28 08:06:03;;;;;;;1.58;1.27;;;18.70;78.40;;;;;;5029243;28;20403;-66
2023/06/28 08:08:29;;;;;;;1.98;1.20;;;18.70;78.40;;;;;;5009071;28;20378;-66
2023/06/28 08:10:55;;;;;;;1.80;1.05;;;18.70;78.40;;;;;;5029631;28;20097;-66
2023/06/28 08:13:20;;;;;;;3.03;1.23;;;18.80;78.40;;;;;;5027372;28;20030;-65
2023/06/28 08:15:46;;;;;;;2.65;1.40;;;18.90;78.40;;;;;;5028950;28;20064;-66
2023/06/28 08:18:15;;;;;;;2.42;1.38;;;18.90;78.40;;;;;;5029305;28;20385;-66
2023/06/28 08:20:43;;;;;;;2.25;1.23;;;19.00;78.90;;;;;;5025691;28;20018;-66
2023/06/28 08:23:10;;;;;;;3.15;1.48;;;19.00;78.10;;;;;;5029185;28;20063;-66
2023/06/28 08:25:35;;;;;;;0.98;0.73;;;19.10;78.10;;;;;;5030116;28;20113;-66
2023/06/28 08:28:01;;;;;;;3.78;1.45;;;19.20;78.00;;;;;;5030028;28;20404;-65
2023/06/28 08:30:26;;;;;;;4.85;1.85;;;19.30;77.90;;;;;;5028239;28;20034;-66
2023/06/28 08:32:52;;;;;;;1.20;0.95;;;19.30;77.70;;;;;;5030544;28;20108;-66
2023/06/28 08:35:18;;;;;;;1.98;1.50;;;19.30;77.60;;;;;;5029945;28;20022;-66
2023/06/28 08:37:44;;;;;;;1.80;1.42;;;19.30;77.50;;;;;;5031184;28;20033;-62
2023/06/28 08:40:10;;;;;;;2.85;1.30;;;19.30;77.50;;;;;;5031934;28;20461;-62
2023/06/28 08:42:39;;;;;;;4.45;1.25;;;19.30;77.50;;;;;;5031893;28;20100;-62
2023/06/28 08:45:05;;;;;;;3.08;1.35;;;19.40;77.40;;;;;;5027777;28;20115;-63
2023/06/28 08:47:32;;;;;;;1.77;1.20;;;19.40;77.40;;;;;;5026917;28;20037;-64
2023/06/28 08:49:59;;;;;;;2.03;1.02;;;19.40;77.40;;;;;;5031135;28;20021;-64
2023/06/28 08:52:27;;;;;;;5.38;1.42;;;19.40;77.40;;;;;;5031333;28;20029;-63
2023/06/28 08:54:53;;;;;;;1.73;1.27;;;19.40;77.20;;;;;;5013078;28;20029;-63
2023/06/28 08:57:20;;;;;;;1.45;0.95;;;19.50;77.30;;;;;;5028819;28;20515;-65
2023/06/28 08:59:46;;;;;;;2.55;1.40;;;19.60;77.30;;;;;;5026472;28;20255;-65
2023/06/28 09:02:17;;;;;;;1.48;1.25;;;19.60;77.30;;;;;;5025292;28;20052;-65
2023/06/28 09:04:44;;;;;;;1.15;0.80;;;19.60;77.00;;;;;;5031418;28;20033;-65
2023/06/28 09:07:13;;;;;;;2.42;0.95;;;19.60;77.00;;;;;;5030324;28;20116;-66
2023/06/28 09:09:41;;;;;;;2.53;1.05;;;19.70;77.20;;;;;;5026627;28;20328;-65
2023/06/28 09:12:08;;;;;;;2.80;1.17;;;19.70;77.10;;;;;;5029190;28;20072;-65
2023/06/28 09:14:33;;;;;;;3.28;1.25;;;19.70;76.70;;;;;;5030951;28;20567;-65
2023/06/28 09:16:59;;;;;;;2.58;1.20;;;19.70;76.70;;;;;;5029499;28;20057;-63
2023/06/28 09:19:25;;;;;;;1.63;1.20;;;19.70;76.40;;;;;;5030340;28;20476;-63
2023/06/28 09:21:51;;;;;;;1.45;1.10;;;19.80;76.30;;;;;;5030210;28;20021;-63
2023/06/28 09:24:16;;;;;;;3.55;1.10;;;19.80;76.30;;;;;;5012420;28;20483;-63
2023/06/28 09:26:43;;;;;;;1.20;0.90;;;19.80;76.10;;;;;;5030057;28;20083;-63
2023/06/28 09:29:12;;;;;;;2.13;1.08;;;19.70;76.10;;;;;;5029004;28;20064;-63
2023/06/28 09:31:44;;;;;;;1.30;1.00;;;19.80;76.20;;;;;;5011664;28;20120;-63
2023/06/28 09:34:10;;;;;;;1.77;0.98;;;19.80;76.30;;;;;;5023346;28;20120;-63
2023/06/28 09:36:37;;;;;;;1.75;1.33;;;19.80;76.20;;;;;;5027261;28;20105;-63
2023/06/28 09:39:12;;;;;;;2.85;0.93;;;19.80;76.20;;;;;;5025184;28;20033;-63
2023/06/28 09:41:39;;;;;;;2.80;0.93;;;19.90;76.20;;;;;;5013348;28;20028;-63
2023/06/28 09:44:07;;;;;;;2.40;1.30;;;19.90;76.10;;;;;;5028217;28;20556;-62
2023/06/28 09:46:33;;;;;;;1.83;1.00;;;20.00;76.00;;;;;;5031560;28;20033;-63
2023/06/28 09:48:59;;;;;;;2.30;1.48;;;20.00;75.80;;;;;;5004385;28;20042;-63
2023/06/28 09:51:25;;;;;;;1.48;1.20;;;20.00;75.40;;;;;;5011963;28;20089;-63
2023/06/28 09:53:53;;;;;;;3.63;1.85;;;20.00;75.40;;;;;;5030282;28;20730;-63
2023/06/28 09:56:38;;;;;;;3.58;1.20;;;20.10;75.40;;;;;;5030318;28;20053;-65
2023/06/28 09:59:07;;;;;;;2.28;1.55;;;20.20;75.30;;;;;;5028286;28;20103;-65
2023/06/28 10:01:41;;;;;;;1.88;1.27;;;20.20;75.20;;;;;;5031685;28;20042;-65
2023/06/28 10:04:11;;;;;;;5.78;2.10;;;20.20;74.90;;;;;;5028634;28;20087;-65
2023/06/28 10:06:37;;;;;;;1.67;1.20;;;20.20;75.10;;;;;;5029336;28;20033;-65
2023/06/28 10:09:03;;;;;;;2.08;1.42;;;20.10;74.80;;;;;;5011500;28;20458;-65
2023/06/28 10:11:31;;;;;;;3.17;1.58;;;20.10;74.70;;;;;;5011628;28;20396;-65
2023/06/28 10:13:58;;;;;;;1.58;1.25;;;20.10;74.60;;;;;;5028864;28;20038;-64
2023/06/28 10:16:26;;;;;;;7.28;1.30;;;20.10;74.80;;;;;;5029995;28;20144;-65
2023/06/28 10:18:52;;;;;;;1.70;1.33;;;20.10;74.80;;;;;;5011055;28;20568;-65
2023/06/28 10:21:18;;;;;;;4.40;1.50;;;20.10;74.80;;;;;;5030128;28;20087;-64
2023/06/28 10:23:45;;;;;;;4.82;2.20;;;20.10;74.80;;;;;;5027776;28;20029;-65
2023/06/28 10:26:13;;;;;;;3.97;1.83;;;20.10;74.60;;;;;;5030419;28;20112;-63
2023/06/28 10:28:40;;;;;;;1.90;1.10;;;20.10;74.80;;;;;;5029127;28;20029;-63
2023/06/28 10:31:07;;;;;;;1.80;1.58;;;20.10;74.80;;;;;;5012085;28;20113;-63
2023/06/28 10:33:36;;;;;;;1.85;1.35;;;20.20;74.70;;;;;;5028684;28;20032;-63
2023/06/28 10:36:03;;;;;;;3.88;1.10;;;20.30;74.60;;;;;;5029991;28;20029;-62
2023/06/28 10:38:33;;;;;;;2.00;1.27;;;20.50;74.90;;;;;;5030259;28;20120;-63
2023/06/28 10:41:03;;;;;;;2.30;1.23;;;20.60;74.10;;;;;;5012797;28;20049;-62
2023/06/28 10:43:30;;;;;;;3.80;1.50;;;20.70;74.20;;;;;;5028954;28;20086;-62
2023/06/28 10:45:56;;;;;;;5.32;1.52;;;20.90;73.50;;;;;;5028151;28;20025;-62
2023/06/28 10:48:23;;;;;;;1.58;1.40;;;20.90;73.10;;;;;;5029613;28;20033;-62
2023/06/28 10:50:50;;;;;;;3.20;1.90;;;21.10;72.90;;;;;;5029541;28;20060;-62
2023/06/28 10:53:23;;;;;;;6.97;1.85;;;21.20;72.30;;;;;;5028201;28;20029;-63
2023/06/28 10:56:09;;;;;;;2.80;1.90;;;21.40;71.70;;;;;;5026268;28;20038;-63
2023/06/28 10:58:39;;;;;;;6.97;2.05;;;21.50;70.80;;;;;;5023323;28;20372;-62
2023/06/28 11:01:07;;;;;;;3.83;1.42;;;21.50;70.80;;;;;;5026593;28;20112;-60
2023/06/28 11:03:44;;;;;;;4.47;1.75;;;21.60;70.70;;;;;;5023737;28;20040;-62
2023/06/28 11:06:12;;;;;;;7.32;1.92;;;21.70;70.60;;;;;;5026012;28;20041;-62
2023/06/28 11:08:44;;;;;;;6.05;2.50;;;21.90;69.90;;;;;;5025161;28;20026;-61
2023/06/28 11:11:30;;;;;;;5.00;1.52;;;22.00;69.40;;;;;;5028560;28;20108;-62
2023/06/28 11:13:57;;;;;;;2.00;1.45;;;22.20;69.40;;;;;;5016087;28;20069;-63
2023/06/28 11:16:24;;;;;;;3.17;1.70;;;22.30;69.20;;;;;;5012163;28;20156;-60
2023/06/28 11:18:51;;;;;;;1.85;1.67;;;22.50;69.00;;;;;;5028624;28;20109;-61
2023/06/28 11:21:24;;;;;;;2.85;1.83;;;22.50;68.50;;;;;;5028352;28;20055;-59
2023/06/28 11:23:54;;;;;;;2.38;1.20;;;22.50;68.10;;;;;;5028415;28;20369;-59
2023/06/28 11:26:33;;;;;;;5.38;2.28;;;22.60;68.20;;;;;;5029935;28;20040;-59
2023/06/28 11:28:59;;;;;;;2.33;1.38;;;22.60;67.50;;;;;;5029722;28;20103;-59
2023/06/28 11:31:42;;;;;;;2.35;1.27;;;22.50;67.70;;;;;;5028820;28;20041;-59
2023/06/28 11:34:13;;;;;;;1.92;1.38;;;22.70;68.20;;;;;;5005110;28;20492;-57
2023/06/28 11:36:42;;;;;;;1.83;1.50;;;22.80;68.40;;;;;;5029260;28;20032;-63
2023/06/28 11:39:07;;;;;;;3.25;1.58;;;23.00;68.20;;;;;;5029139;28;20025;-63
2023/06/28 11:41:34;;;;;;;2.75;2.00;;;23.00;67.60;;;;;;5021852;28;20064;-62
2023/06/28 11:44:04;;;;;;;2.20;1.33;;;23.10;67.40;;;;;;5025857;28;20026;-62
2023/06/28 11:46:33;;;;;;;2.63;1.55;;;23.10;67.10;;;;;;5027837;28;20676;-62
2023/06/28 11:49:02;;;;;;;2.80;1.70;;;23.10;67.10;;;;;;5010425;28;20182;-63
2023/06/28 11:51:29;;;;;;;3.80;1.83;;;23.20;67.10;;;;;;5011274;28;20040;-64
2023/06/28 11:53:56;;;;;;;3.30;1.73;;;23.20;66.60;;;;;;5030544;28;20033;-64
2023/06/28 11:56:42;;;;;;;2.53;1.30;;;23.20;66.90;;;;;;5014196;28;20038;-64
2023/06/28 11:59:16;;;;;;;4.70;2.10;;;23.30;67.10;;;;;;5032775;28;20108;-63
2023/06/28 12:01:42;;;;;;;5.07;2.60;;;23.30;66.60;;;;;;5027756;28;20073;-63
2023/06/28 12:04:19;;;;;;;4.32;1.77;;;23.10;66.30;;;;;;5030773;28;20037;-64
2023/06/28 12:06:46;;;;;;;2.70;2.03;;;22.90;66.60;;;;;;5029992;28;20109;-64
2023/06/28 12:09:23;;;;;;;2.83;1.30;;;22.80;67.00;;;;;;5030999;28;20052;-64
2023/06/28 12:11:57;;;;;;;3.70;1.70;;;22.80;67.00;;;;;;5028457;28;20116;-64
2023/06/28 12:14:23;;;;;;;3.60;1.48;;;22.70;67.10;;;;;;5030449;28;20435;-64
2023/06/28 12:16:52;;;;;;;3.08;1.52;;;22.70;67.60;;;;;;5031193;28;20055;-64
2023/06/28 12:19:18;;;;;;;2.75;1.90;;;22.70;67.60;;;;;;5013098;28;20551;-64
2023/06/28 12:21:45;;;;;;;3.08;1.35;;;22.70;66.90;;;;;;5031105;28;20031;-64
2023/06/28 12:24:21;;;;;;;4.07;1.20;;;22.70;67.20;;;;;;5031586;28;20037;-64
2023/06/28 12:26:51;;;;;;;2.63;1.45;;;22.60;66.90;;;;;;5030772;28;20072;-64
2023/06/28 12:29:21;;;;;;;2.13;1.23;;;22.60;67.10;;;;;;5031692;28;20525;-64
2023/06/28 12:32:02;;;;;;;3.50;2.03;;;22.70;67.10;;;;;;5030105;28;20115;-64
2023/06/28 12:34:31;;;;;;;1.55;1.33;;;22.90;66.90;;;;;;5032538;28;20681;-66
2023/06/28 12:37:08;;;;;;;6.05;2.08;;;22.90;66.70;;;;;;5029936;28;20029;-64
2023/06/28 12:39:38;;;;;;;2.83;1.40;;;23.00;66.80;;;;;;5030914;28;20500;-64
2023/06/28 12:42:06;;;;;;;2.35;1.63;;;23.10;66.70;;;;;;5008547;28;20041;-64
2023/06/28 12:44:50;;;;;;;4.88;1.92;;;23.20;66.70;;;;;;5013661;28;20041;-64
2023/06/28 12:47:17;;;;;;;2.47;1.20;;;23.30;66.50;;;;;;5031677;28;20484;-64